sensor_id;sensor_type;location;lat;lon;timestamp;P1;durP1;ratioP1;P2;durP2;ratioP2
74799;SDS011;63326;45.088;7.658;2023-02-19T00:01:05;13.48;;;7.32;;
74799;SDS011;63326;45.088;7.658;2023-02-19T00:03:48;12.43;;;7.88;;
74799;SDS011;63326;45.088;7.658;2023-02-19T00:06:18;13.38;;;6.40;;
74799;SDS011;63326;45.088;7.658;2023-02-19T00:08:45;11.60;;;7.65;;
74799;SDS011;63326;45.088;7.658;2023-02-19T00:11:14;10.95;;;7.05;;
74799;SDS011;63326;45.088;7.658;2023-02-19T00:13:46;15.30;;;8.57;;
74799;SDS011;63326;45.088;7.658;2023-02-19T00:16:16;10.90;;;6.57;;
74799;SDS011;63326;45.088;7.658;2023-02-19T00:18:53;14.15;;;7.43;;
74799;SDS011;63326;45.088;7.658;2023-02-19T00:21:21;12.05;;;8.05;;
74799;SDS011;63326;45.088;7.658;2023-02-19T00:23:49;15.10;;;8.40;;
74799;SDS011;63326;45.088;7.658;2023-02-19T00:26:18;11.60;;;7.35;;
74799;SDS011;63326;45.088;7.658;2023-02-19T00:28:48;14.40;;;7.57;;
74799;SDS011;63326;45.088;7.658;2023-02-19T00:31:23;15.20;;;7.70;;
74799;SDS011;63326;45.088;7.658;2023-02-19T00:33:54;16.90;;;7.18;;
74799;SDS011;63326;45.088;7.658;2023-02-19T00:36:23;17.90;;;8.82;;
74799;SDS011;63326;45.088;7.658;2023-02-19T00:38:51;13.95;;;7.57;;
74799;SDS011;63326;45.088;7.658;2023-02-19T00:41:18;21.38;;;6.75;;
74799;SDS011;63326;45.088;7.658;2023-02-19T00:43:48;16.30;;;7.13;;
74799;SDS011;63326;45.088;7.658;2023-02-19T00:46:25;9.20;;;6.38;;
74799;SDS011;63326;45.088;7.658;2023-02-19T00:49:16;9.85;;;8.15;;
74799;SDS011;63326;45.088;7.658;2023-02-19T00:51:45;12.77;;;8.75;;
74799;SDS011;63326;45.088;7.658;2023-02-19T00:54:13;14.00;;;7.65;;
74799;SDS011;63326;45.088;7.658;2023-02-19T00:56:40;17.35;;;7.15;;
74799;SDS011;63326;45.088;7.658;2023-02-19T00:59:07;12.77;;;9.20;;
74799;SDS011;63326;45.088;7.658;2023-02-19T01:01:34;13.98;;;7.43;;
74799;SDS011;63326;45.088;7.658;2023-02-19T01:04:01;21.20;;;8.82;;
74799;SDS011;63326;45.088;7.658;2023-02-19T01:06:31;16.95;;;9.82;;
74799;SDS011;63326;45.088;7.658;2023-02-19T01:08:58;12.57;;;8.80;;
74799;SDS011;63326;45.088;7.658;2023-02-19T01:11:24;17.52;;;9.55;;
74799;SDS011;63326;45.088;7.658;2023-02-19T01:13:55;13.95;;;7.38;;
74799;SDS011;63326;45.088;7.658;2023-02-19T01:16:23;14.18;;;8.98;;
74799;SDS011;63326;45.088;7.658;2023-02-19T01:18:50;13.35;;;7.22;;
74799;SDS011;63326;45.088;7.658;2023-02-19T01:21:18;24.58;;;9.75;;
74799;SDS011;63326;45.088;7.658;2023-02-19T01:23:47;14.07;;;8.55;;
74799;SDS011;63326;45.088;7.658;2023-02-19T01:26:25;13.48;;;8.77;;
74799;SDS011;63326;45.088;7.658;2023-02-19T01:28:54;15.82;;;8.05;;
74799;SDS011;63326;45.088;7.658;2023-02-19T01:31:22;20.35;;;8.60;;
74799;SDS011;63326;45.088;7.658;2023-02-19T01:33:50;18.50;;;8.90;;
74799;SDS011;63326;45.088;7.658;2023-02-19T01:36:18;15.10;;;10.05;;
74799;SDS011;63326;45.088;7.658;2023-02-19T01:38:45;15.60;;;10.38;;
74799;SDS011;63326;45.088;7.658;2023-02-19T01:41:14;29.63;;;7.50;;
74799;SDS011;63326;45.088;7.658;2023-02-19T01:46:38;11.48;;;8.15;;
74799;SDS011;63326;45.088;7.658;2023-02-19T01:49:14;12.10;;;8.32;;
74799;SDS011;63326;45.088;7.658;2023-02-19T01:51:47;12.35;;;6.82;;
74799;SDS011;63326;45.088;7.658;2023-02-19T01:54:18;12.07;;;6.75;;
74799;SDS011;63326;45.088;7.658;2023-02-19T01:56:48;12.70;;;7.63;;
74799;SDS011;63326;45.088;7.658;2023-02-19T01:59:15;16.65;;;10.50;;
74799;SDS011;63326;45.088;7.658;2023-02-19T02:01:43;13.57;;;7.93;;
74799;SDS011;63326;45.088;7.658;2023-02-19T02:04:11;22.50;;;9.68;;
74799;SDS011;63326;45.088;7.658;2023-02-19T02:09:15;13.60;;;7.57;;
74799;SDS011;63326;45.088;7.658;2023-02-19T02:12:03;13.50;;;8.73;;
74799;SDS011;63326;45.088;7.658;2023-02-19T02:14:32;15.35;;;8.32;;
74799;SDS011;63326;45.088;7.658;2023-02-19T02:30:45;13.13;;;8.43;;
74799;SDS011;63326;45.088;7.658;2023-02-19T02:36:06;20.40;;;8.20;;
74799;SDS011;63326;45.088;7.658;2023-02-19T02:38:39;16.00;;;10.85;;
74799;SDS011;63326;45.088;7.658;2023-02-19T02:41:09;11.50;;;9.07;;
74799;SDS011;63326;45.088;7.658;2023-02-19T02:43:38;18.45;;;10.68;;
74799;SDS011;63326;45.088;7.658;2023-02-19T02:46:05;14.35;;;9.38;;
74799;SDS011;63326;45.088;7.658;2023-02-19T02:48:49;14.00;;;10.40;;
74799;SDS011;63326;45.088;7.658;2023-02-19T02:51:22;17.00;;;8.35;;
74799;SDS011;63326;45.088;7.658;2023-02-19T02:56:52;12.30;;;6.90;;
74799;SDS011;63326;45.088;7.658;2023-02-19T02:59:22;12.07;;;7.45;;
74799;SDS011;63326;45.088;7.658;2023-02-19T03:02:06;17.25;;;10.30;;
74799;SDS011;63326;45.088;7.658;2023-02-19T03:07:48;14.88;;;9.05;;
74799;SDS011;63326;45.088;7.658;2023-02-19T03:10:21;14.55;;;8.05;;
74799;SDS011;63326;45.088;7.658;2023-02-19T03:15:42;14.95;;;7.90;;
74799;SDS011;63326;45.088;7.658;2023-02-19T03:18:46;12.65;;;8.73;;
74799;SDS011;63326;45.088;7.658;2023-02-19T03:21:38;14.27;;;8.30;;
74799;SDS011;63326;45.088;7.658;2023-02-19T03:24:08;17.65;;;10.00;;
74799;SDS011;63326;45.088;7.658;2023-02-19T03:27:00;14.68;;;8.35;;
74799;SDS011;63326;45.088;7.658;2023-02-19T03:29:36;10.68;;;8.57;;
74799;SDS011;63326;45.088;7.658;2023-02-19T03:32:11;16.08;;;8.27;;
74799;SDS011;63326;45.088;7.658;2023-02-19T03:34:45;12.90;;;7.47;;
74799;SDS011;63326;45.088;7.658;2023-02-19T03:37:19;22.30;;;8.65;;
74799;SDS011;63326;45.088;7.658;2023-02-19T03:39:51;17.70;;;8.63;;
74799;SDS011;63326;45.088;7.658;2023-02-19T03:45:32;17.38;;;8.13;;
74799;SDS011;63326;45.088;7.658;2023-02-19T03:48:26;12.60;;;7.40;;
74799;SDS011;63326;45.088;7.658;2023-02-19T03:56:14;16.38;;;7.55;;
74799;SDS011;63326;45.088;7.658;2023-02-19T04:01:52;11.55;;;9.43;;
74799;SDS011;63326;45.088;7.658;2023-02-19T04:04:30;21.25;;;8.07;;
74799;SDS011;63326;45.088;7.658;2023-02-19T04:07:19;11.40;;;8.60;;
74799;SDS011;63326;45.088;7.658;2023-02-19T04:09:49;12.93;;;6.93;;
74799;SDS011;63326;45.088;7.658;2023-02-19T04:12:18;15.85;;;9.23;;
74799;SDS011;63326;45.088;7.658;2023-02-19T04:17:24;14.40;;;7.80;;
74799;SDS011;63326;45.088;7.658;2023-02-19T04:19:54;19.85;;;10.68;;
74799;SDS011;63326;45.088;7.658;2023-02-19T04:22:24;14.60;;;9.10;;
74799;SDS011;63326;45.088;7.658;2023-02-19T04:24:52;9.05;;;8.20;;
74799;SDS011;63326;45.088;7.658;2023-02-19T04:27:20;12.25;;;9.43;;
74799;SDS011;63326;45.088;7.658;2023-02-19T04:29:47;17.05;;;9.73;;
74799;SDS011;63326;45.088;7.658;2023-02-19T04:32:14;15.73;;;8.98;;
74799;SDS011;63326;45.088;7.658;2023-02-19T04:34:40;17.75;;;10.75;;
74799;SDS011;63326;45.088;7.658;2023-02-19T04:37:07;16.35;;;9.07;;
74799;SDS011;63326;45.088;7.658;2023-02-19T04:39:34;14.38;;;10.10;;
74799;SDS011;63326;45.088;7.658;2023-02-19T04:42:00;17.30;;;9.05;;
74799;SDS011;63326;45.088;7.658;2023-02-19T04:44:27;13.27;;;9.48;;
74799;SDS011;63326;45.088;7.658;2023-02-19T04:46:54;9.90;;;8.35;;
74799;SDS011;63326;45.088;7.658;2023-02-19T04:49:21;16.40;;;8.50;;
74799;SDS011;63326;45.088;7.658;2023-02-19T04:51:47;15.57;;;9.13;;
74799;SDS011;63326;45.088;7.658;2023-02-19T04:54:14;13.55;;;8.45;;
74799;SDS011;63326;45.088;7.658;2023-02-19T04:56:41;16.08;;;9.43;;
74799;SDS011;63326;45.088;7.658;2023-02-19T04:59:07;17.20;;;10.25;;
74799;SDS011;63326;45.088;7.658;2023-02-19T05:01:35;10.57;;;7.20;;
74799;SDS011;63326;45.088;7.658;2023-02-19T05:04:01;9.98;;;8.15;;
74799;SDS011;63326;45.088;7.658;2023-02-19T05:06:30;17.63;;;9.50;;
74799;SDS011;63326;45.088;7.658;2023-02-19T05:08:56;13.45;;;8.43;;
74799;SDS011;63326;45.088;7.658;2023-02-19T05:11:23;14.73;;;7.45;;
74799;SDS011;63326;45.088;7.658;2023-02-19T05:13:50;18.40;;;9.05;;
74799;SDS011;63326;45.088;7.658;2023-02-19T05:16:17;12.75;;;9.15;;
74799;SDS011;63326;45.088;7.658;2023-02-19T05:18:44;9.52;;;7.45;;
74799;SDS011;63326;45.088;7.658;2023-02-19T05:21:12;9.63;;;6.90;;
74799;SDS011;63326;45.088;7.658;2023-02-19T05:23:39;15.68;;;8.02;;
74799;SDS011;63326;45.088;7.658;2023-02-19T05:26:11;12.27;;;7.88;;
74799;SDS011;63326;45.088;7.658;2023-02-19T05:28:43;15.35;;;10.38;;
74799;SDS011;63326;45.088;7.658;2023-02-19T05:31:11;17.50;;;9.45;;
74799;SDS011;63326;45.088;7.658;2023-02-19T05:33:39;15.98;;;9.15;;
74799;SDS011;63326;45.088;7.658;2023-02-19T05:36:09;10.55;;;6.53;;
74799;SDS011;63326;45.088;7.658;2023-02-19T05:38:38;14.82;;;10.30;;
74799;SDS011;63326;45.088;7.658;2023-02-19T05:41:06;13.73;;;8.63;;
74799;SDS011;63326;45.088;7.658;2023-02-19T05:43:34;9.00;;;7.38;;
74799;SDS011;63326;45.088;7.658;2023-02-19T05:46:00;12.95;;;8.85;;
74799;SDS011;63326;45.088;7.658;2023-02-19T05:48:27;18.50;;;10.77;;
74799;SDS011;63326;45.088;7.658;2023-02-19T05:50:59;10.43;;;6.22;;
74799;SDS011;63326;45.088;7.658;2023-02-19T05:53:27;12.82;;;7.65;;
74799;SDS011;63326;45.088;7.658;2023-02-19T05:55:54;14.13;;;9.02;;
74799;SDS011;63326;45.088;7.658;2023-02-19T05:58:20;12.23;;;8.07;;
74799;SDS011;63326;45.088;7.658;2023-02-19T06:00:47;9.20;;;7.25;;
74799;SDS011;63326;45.088;7.658;2023-02-19T06:03:14;15.38;;;8.07;;
74799;SDS011;63326;45.088;7.658;2023-02-19T06:05:41;8.93;;;7.25;;
74799;SDS011;63326;45.088;7.658;2023-02-19T06:08:08;16.75;;;8.02;;
74799;SDS011;63326;45.088;7.658;2023-02-19T06:10:38;13.43;;;6.18;;
74799;SDS011;63326;45.088;7.658;2023-02-19T06:13:07;14.30;;;8.38;;
74799;SDS011;63326;45.088;7.658;2023-02-19T06:15:35;9.13;;;7.13;;
74799;SDS011;63326;45.088;7.658;2023-02-19T06:18:02;14.40;;;7.00;;
74799;SDS011;63326;45.088;7.658;2023-02-19T06:20:29;11.90;;;8.32;;
74799;SDS011;63326;45.088;7.658;2023-02-19T06:22:56;13.68;;;8.07;;
74799;SDS011;63326;45.088;7.658;2023-02-19T06:25:23;11.73;;;7.30;;
74799;SDS011;63326;45.088;7.658;2023-02-19T06:27:49;11.57;;;8.45;;
74799;SDS011;63326;45.088;7.658;2023-02-19T06:30:16;13.15;;;8.63;;
74799;SDS011;63326;45.088;7.658;2023-02-19T06:32:43;16.13;;;6.25;;
74799;SDS011;63326;45.088;7.658;2023-02-19T06:35:09;10.82;;;6.25;;
74799;SDS011;63326;45.088;7.658;2023-02-19T06:37:36;12.95;;;6.63;;
74799;SDS011;63326;45.088;7.658;2023-02-19T06:40:03;13.10;;;7.43;;
74799;SDS011;63326;45.088;7.658;2023-02-19T06:42:30;13.05;;;7.20;;
74799;SDS011;63326;45.088;7.658;2023-02-19T06:47:24;10.90;;;6.85;;
74799;SDS011;63326;45.088;7.658;2023-02-19T06:49:51;15.95;;;6.72;;
74799;SDS011;63326;45.088;7.658;2023-02-19T06:52:18;12.02;;;6.82;;
74799;SDS011;63326;45.088;7.658;2023-02-19T06:54:44;9.88;;;5.97;;
74799;SDS011;63326;45.088;7.658;2023-02-19T06:57:11;10.07;;;7.60;;
74799;SDS011;63326;45.088;7.658;2023-02-19T06:59:38;15.98;;;8.70;;
74799;SDS011;63326;45.088;7.658;2023-02-19T07:02:04;9.48;;;5.38;;
74799;SDS011;63326;45.088;7.658;2023-02-19T07:04:31;11.20;;;7.50;;
74799;SDS011;63326;45.088;7.658;2023-02-19T07:06:58;16.30;;;8.02;;
74799;SDS011;63326;45.088;7.658;2023-02-19T07:09:25;13.63;;;6.13;;
74799;SDS011;63326;45.088;7.658;2023-02-19T07:11:53;9.77;;;5.53;;
74799;SDS011;63326;45.088;7.658;2023-02-19T07:14:20;13.35;;;7.32;;
74799;SDS011;63326;45.088;7.658;2023-02-19T07:16:47;24.02;;;9.70;;
74799;SDS011;63326;45.088;7.658;2023-02-19T07:19:14;11.25;;;7.63;;
74799;SDS011;63326;45.088;7.658;2023-02-19T07:21:41;17.20;;;10.02;;
74799;SDS011;63326;45.088;7.658;2023-02-19T07:24:08;19.27;;;8.45;;
74799;SDS011;63326;45.088;7.658;2023-02-19T07:26:35;14.60;;;8.55;;
74799;SDS011;63326;45.088;7.658;2023-02-19T07:29:02;18.70;;;11.98;;
74799;SDS011;63326;45.088;7.658;2023-02-19T07:31:29;15.07;;;8.68;;
74799;SDS011;63326;45.088;7.658;2023-02-19T07:33:56;20.80;;;11.15;;
74799;SDS011;63326;45.088;7.658;2023-02-19T07:36:23;21.75;;;10.93;;
74799;SDS011;63326;45.088;7.658;2023-02-19T07:38:53;19.17;;;12.73;;
74799;SDS011;63326;45.088;7.658;2023-02-19T07:41:21;25.38;;;11.93;;
74799;SDS011;63326;45.088;7.658;2023-02-19T07:43:49;23.77;;;11.07;;
74799;SDS011;63326;45.088;7.658;2023-02-19T07:46:15;20.98;;;11.35;;
74799;SDS011;63326;45.088;7.658;2023-02-19T07:48:42;17.88;;;11.02;;
74799;SDS011;63326;45.088;7.658;2023-02-19T07:51:11;25.30;;;12.32;;
74799;SDS011;63326;45.088;7.658;2023-02-19T07:53:41;20.10;;;10.75;;
74799;SDS011;63326;45.088;7.658;2023-02-19T07:56:09;22.90;;;11.00;;
74799;SDS011;63326;45.088;7.658;2023-02-19T07:58:36;17.77;;;11.02;;
74799;SDS011;63326;45.088;7.658;2023-02-19T08:01:07;19.85;;;11.73;;
74799;SDS011;63326;45.088;7.658;2023-02-19T08:03:35;21.02;;;11.57;;
74799;SDS011;63326;45.088;7.658;2023-02-19T08:06:02;20.17;;;10.38;;
74799;SDS011;63326;45.088;7.658;2023-02-19T08:08:29;18.90;;;9.63;;
74799;SDS011;63326;45.088;7.658;2023-02-19T08:11:00;25.17;;;12.68;;
74799;SDS011;63326;45.088;7.658;2023-02-19T08:13:50;19.25;;;11.52;;
74799;SDS011;63326;45.088;7.658;2023-02-19T08:16:18;18.58;;;11.50;;
74799;SDS011;63326;45.088;7.658;2023-02-19T08:18:58;16.67;;;9.60;;
74799;SDS011;63326;45.088;7.658;2023-02-19T08:21:25;21.20;;;10.90;;
74799;SDS011;63326;45.088;7.658;2023-02-19T08:23:52;21.50;;;11.40;;
74799;SDS011;63326;45.088;7.658;2023-02-19T08:26:18;17.88;;;12.43;;
74799;SDS011;63326;45.088;7.658;2023-02-19T08:28:45;17.67;;;10.32;;
74799;SDS011;63326;45.088;7.658;2023-02-19T08:31:14;17.83;;;9.73;;
74799;SDS011;63326;45.088;7.658;2023-02-19T08:33:41;21.98;;;11.73;;
74799;SDS011;63326;45.088;7.658;2023-02-19T08:36:08;17.63;;;10.95;;
74799;SDS011;63326;45.088;7.658;2023-02-19T08:38:36;18.80;;;10.10;;
74799;SDS011;63326;45.088;7.658;2023-02-19T08:41:06;16.02;;;10.98;;
74799;SDS011;63326;45.088;7.658;2023-02-19T08:43:35;18.92;;;10.68;;
74799;SDS011;63326;45.088;7.658;2023-02-19T08:46:02;16.17;;;9.20;;
74799;SDS011;63326;45.088;7.658;2023-02-19T08:48:29;19.25;;;12.05;;
74799;SDS011;63326;45.088;7.658;2023-02-19T08:50:58;18.17;;;10.48;;
74799;SDS011;63326;45.088;7.658;2023-02-19T08:53:27;18.27;;;11.70;;
74799;SDS011;63326;45.088;7.658;2023-02-19T08:55:54;14.73;;;9.13;;
74799;SDS011;63326;45.088;7.658;2023-02-19T08:58:20;19.45;;;12.20;;
74799;SDS011;63326;45.088;7.658;2023-02-19T09:00:47;17.00;;;11.07;;
74799;SDS011;63326;45.088;7.658;2023-02-19T09:03:14;19.42;;;11.20;;
74799;SDS011;63326;45.088;7.658;2023-02-19T09:05:41;15.52;;;9.63;;
74799;SDS011;63326;45.088;7.658;2023-02-19T09:08:08;15.95;;;9.48;;
74799;SDS011;63326;45.088;7.658;2023-02-19T09:10:34;16.63;;;10.75;;
74799;SDS011;63326;45.088;7.658;2023-02-19T09:13:01;15.98;;;9.82;;
74799;SDS011;63326;45.088;7.658;2023-02-19T09:15:28;16.23;;;10.93;;
74799;SDS011;63326;45.088;7.658;2023-02-19T09:17:55;18.30;;;8.82;;
74799;SDS011;63326;45.088;7.658;2023-02-19T09:20:22;15.73;;;7.57;;
74799;SDS011;63326;45.088;7.658;2023-02-19T09:22:49;21.52;;;11.45;;
74799;SDS011;63326;45.088;7.658;2023-02-19T09:25:16;15.40;;;9.88;;
74799;SDS011;63326;45.088;7.658;2023-02-19T09:27:48;18.73;;;10.82;;
74799;SDS011;63326;45.088;7.658;2023-02-19T09:30:15;17.33;;;11.20;;
74799;SDS011;63326;45.088;7.658;2023-02-19T09:32:42;18.83;;;10.40;;
74799;SDS011;63326;45.088;7.658;2023-02-19T09:35:09;15.30;;;10.27;;
74799;SDS011;63326;45.088;7.658;2023-02-19T09:37:35;16.48;;;9.23;;
74799;SDS011;63326;45.088;7.658;2023-02-19T09:40:02;18.60;;;10.10;;
74799;SDS011;63326;45.088;7.658;2023-02-19T09:42:29;18.05;;;9.32;;
74799;SDS011;63326;45.088;7.658;2023-02-19T09:44:58;14.30;;;9.80;;
74799;SDS011;63326;45.088;7.658;2023-02-19T09:47:28;16.38;;;11.07;;
74799;SDS011;63326;45.088;7.658;2023-02-19T09:50:01;18.27;;;10.20;;
74799;SDS011;63326;45.088;7.658;2023-02-19T09:52:37;16.10;;;9.75;;
74799;SDS011;63326;45.088;7.658;2023-02-19T09:55:17;14.05;;;9.13;;
74799;SDS011;63326;45.088;7.658;2023-02-19T09:57:55;19.52;;;10.73;;
74799;SDS011;63326;45.088;7.658;2023-02-19T10:00:25;15.50;;;8.70;;
74799;SDS011;63326;45.088;7.658;2023-02-19T10:02:59;21.23;;;10.90;;
74799;SDS011;63326;45.088;7.658;2023-02-19T10:05:33;22.17;;;10.57;;
74799;SDS011;63326;45.088;7.658;2023-02-19T10:08:00;18.00;;;11.88;;
74799;SDS011;63326;45.088;7.658;2023-02-19T10:10:33;17.20;;;11.07;;
74799;SDS011;63326;45.088;7.658;2023-02-19T10:13:23;20.42;;;12.45;;
74799;SDS011;63326;45.088;7.658;2023-02-19T10:18:23;17.67;;;9.85;;
74799;SDS011;63326;45.088;7.658;2023-02-19T10:20:53;23.75;;;12.95;;
74799;SDS011;63326;45.088;7.658;2023-02-19T10:23:21;19.52;;;11.55;;
74799;SDS011;63326;45.088;7.658;2023-02-19T10:25:54;17.20;;;11.70;;
74799;SDS011;63326;45.088;7.658;2023-02-19T10:28:23;20.63;;;12.23;;
74799;SDS011;63326;45.088;7.658;2023-02-19T10:30:58;19.92;;;12.50;;
74799;SDS011;63326;45.088;7.658;2023-02-19T10:33:26;18.52;;;11.05;;
74799;SDS011;63326;45.088;7.658;2023-02-19T10:38:31;16.23;;;10.35;;
74799;SDS011;63326;45.088;7.658;2023-02-19T10:41:03;18.98;;;10.05;;
74799;SDS011;63326;45.088;7.658;2023-02-19T10:43:36;19.17;;;9.52;;
74799;SDS011;63326;45.088;7.658;2023-02-19T10:46:15;18.08;;;10.07;;
74799;SDS011;63326;45.088;7.658;2023-02-19T10:48:54;16.17;;;9.77;;
74799;SDS011;63326;45.088;7.658;2023-02-19T10:51:58;17.17;;;10.35;;
74799;SDS011;63326;45.088;7.658;2023-02-19T10:54:24;20.52;;;13.63;;
74799;SDS011;63326;45.088;7.658;2023-02-19T10:57:12;16.23;;;11.30;;
74799;SDS011;63326;45.088;7.658;2023-02-19T11:02:18;19.33;;;11.07;;
74799;SDS011;63326;45.088;7.658;2023-02-19T11:07:35;15.10;;;9.68;;
74799;SDS011;63326;45.088;7.658;2023-02-19T11:10:03;19.23;;;11.80;;
74799;SDS011;63326;45.088;7.658;2023-02-19T11:12:32;20.92;;;10.13;;
74799;SDS011;63326;45.088;7.658;2023-02-19T11:15:10;19.38;;;11.50;;
74799;SDS011;63326;45.088;7.658;2023-02-19T11:17:45;20.80;;;12.80;;
74799;SDS011;63326;45.088;7.658;2023-02-19T11:20:30;21.98;;;14.30;;
74799;SDS011;63326;45.088;7.658;2023-02-19T11:25:31;19.13;;;11.02;;
74799;SDS011;63326;45.088;7.658;2023-02-19T11:30:34;14.68;;;9.18;;
74799;SDS011;63326;45.088;7.658;2023-02-19T11:35:45;22.48;;;12.30;;
74799;SDS011;63326;45.088;7.658;2023-02-19T11:38:14;17.30;;;12.50;;
74799;SDS011;63326;45.088;7.658;2023-02-19T11:46:48;22.13;;;14.05;;
74799;SDS011;63326;45.088;7.658;2023-02-19T11:55:05;20.13;;;14.57;;
74799;SDS011;63326;45.088;7.658;2023-02-19T11:57:43;21.27;;;14.68;;
74799;SDS011;63326;45.088;7.658;2023-02-19T12:00:16;20.50;;;13.32;;
74799;SDS011;63326;45.088;7.658;2023-02-19T12:11:34;17.55;;;11.88;;
74799;SDS011;63326;45.088;7.658;2023-02-19T12:20:02;16.65;;;12.55;;
74799;SDS011;63326;45.088;7.658;2023-02-19T12:22:36;18.05;;;11.55;;
74799;SDS011;63326;45.088;7.658;2023-02-19T12:47:12;15.23;;;10.75;;
74799;SDS011;63326;45.088;7.658;2023-02-19T12:49:59;13.48;;;8.70;;
74799;SDS011;63326;45.088;7.658;2023-02-19T12:52:35;13.35;;;9.25;;
74799;SDS011;63326;45.088;7.658;2023-02-19T12:55:19;13.65;;;10.45;;
74799;SDS011;63326;45.088;7.658;2023-02-19T12:57:47;16.42;;;9.38;;
74799;SDS011;63326;45.088;7.658;2023-02-19T13:00:30;12.05;;;10.23;;
74799;SDS011;63326;45.088;7.658;2023-02-19T13:06:23;12.95;;;9.55;;
74799;SDS011;63326;45.088;7.658;2023-02-19T13:11:50;14.60;;;9.35;;
74799;SDS011;63326;45.088;7.658;2023-02-19T13:19:45;16.58;;;11.68;;
74799;SDS011;63326;45.088;7.658;2023-02-19T13:22:30;15.05;;;11.95;;
74799;SDS011;63326;45.088;7.658;2023-02-19T13:25:27;15.10;;;13.25;;
74799;SDS011;63326;45.088;7.658;2023-02-19T13:28:12;10.73;;;8.55;;
74799;SDS011;63326;45.088;7.658;2023-02-19T13:36:25;15.57;;;11.57;;
74799;SDS011;63326;45.088;7.658;2023-02-19T13:38:55;13.98;;;9.05;;
74799;SDS011;63326;45.088;7.658;2023-02-19T13:41:30;14.32;;;10.43;;
74799;SDS011;63326;45.088;7.658;2023-02-19T13:44:01;11.50;;;10.10;;
74799;SDS011;63326;45.088;7.658;2023-02-19T13:46:37;11.48;;;9.02;;
74799;SDS011;63326;45.088;7.658;2023-02-19T13:51:57;13.95;;;9.75;;
74799;SDS011;63326;45.088;7.658;2023-02-19T13:54:27;13.25;;;11.02;;
74799;SDS011;63326;45.088;7.658;2023-02-19T13:59:50;13.13;;;9.48;;
74799;SDS011;63326;45.088;7.658;2023-02-19T14:07:37;12.73;;;10.32;;
74799;SDS011;63326;45.088;7.658;2023-02-19T14:10:49;15.20;;;13.32;;
74799;SDS011;63326;45.088;7.658;2023-02-19T14:16:31;13.85;;;9.85;;
74799;SDS011;63326;45.088;7.658;2023-02-19T14:19:16;13.23;;;11.02;;
74799;SDS011;63326;45.088;7.658;2023-02-19T14:30:31;13.85;;;9.57;;
74799;SDS011;63326;45.088;7.658;2023-02-19T14:33:00;13.20;;;10.43;;
74799;SDS011;63326;45.088;7.658;2023-02-19T14:35:38;13.63;;;11.85;;
74799;SDS011;63326;45.088;7.658;2023-02-19T14:38:13;15.00;;;9.68;;
74799;SDS011;63326;45.088;7.658;2023-02-19T14:40:45;13.55;;;12.15;;
74799;SDS011;63326;45.088;7.658;2023-02-19T14:43:15;13.57;;;11.10;;
74799;SDS011;63326;45.088;7.658;2023-02-19T14:45:46;15.45;;;11.77;;
74799;SDS011;63326;45.088;7.658;2023-02-19T14:48:22;14.23;;;10.43;;
74799;SDS011;63326;45.088;7.658;2023-02-19T14:50:56;13.80;;;10.88;;
74799;SDS011;63326;45.088;7.658;2023-02-19T14:53:29;16.20;;;11.90;;
74799;SDS011;63326;45.088;7.658;2023-02-19T14:56:01;17.10;;;10.60;;
74799;SDS011;63326;45.088;7.658;2023-02-19T14:58:30;12.63;;;9.13;;
74799;SDS011;63326;45.088;7.658;2023-02-19T15:00:59;13.65;;;9.82;;
74799;SDS011;63326;45.088;7.658;2023-02-19T15:03:30;18.88;;;10.73;;
74799;SDS011;63326;45.088;7.658;2023-02-19T15:06:06;13.85;;;10.30;;
74799;SDS011;63326;45.088;7.658;2023-02-19T15:08:42;16.95;;;10.88;;
74799;SDS011;63326;45.088;7.658;2023-02-19T15:11:14;15.30;;;11.05;;
74799;SDS011;63326;45.088;7.658;2023-02-19T15:13:52;15.82;;;11.00;;
74799;SDS011;63326;45.088;7.658;2023-02-19T15:16:22;13.52;;;10.05;;
74799;SDS011;63326;45.088;7.658;2023-02-19T15:18:51;14.48;;;10.00;;
74799;SDS011;63326;45.088;7.658;2023-02-19T15:23:58;15.07;;;10.23;;
74799;SDS011;63326;45.088;7.658;2023-02-19T15:26:31;16.35;;;11.07;;
74799;SDS011;63326;45.088;7.658;2023-02-19T15:29:08;13.68;;;9.95;;
74799;SDS011;63326;45.088;7.658;2023-02-19T15:31:43;16.30;;;11.63;;
74799;SDS011;63326;45.088;7.658;2023-02-19T15:34:19;15.27;;;11.40;;
74799;SDS011;63326;45.088;7.658;2023-02-19T15:36:48;15.48;;;10.18;;
74799;SDS011;63326;45.088;7.658;2023-02-19T15:39:20;13.07;;;9.95;;
74799;SDS011;63326;45.088;7.658;2023-02-19T15:41:49;14.45;;;11.40;;
74799;SDS011;63326;45.088;7.658;2023-02-19T15:47:26;17.50;;;10.43;;
74799;SDS011;63326;45.088;7.658;2023-02-19T15:52:44;13.70;;;9.98;;
74799;SDS011;63326;45.088;7.658;2023-02-19T15:57:53;14.70;;;9.73;;
74799;SDS011;63326;45.088;7.658;2023-02-19T16:00:29;14.15;;;9.85;;
74799;SDS011;63326;45.088;7.658;2023-02-19T16:03:01;15.30;;;10.18;;
74799;SDS011;63326;45.088;7.658;2023-02-19T16:05:30;13.43;;;9.07;;
74799;SDS011;63326;45.088;7.658;2023-02-19T16:10:36;13.88;;;9.80;;
74799;SDS011;63326;45.088;7.658;2023-02-19T16:13:04;16.67;;;9.73;;
74799;SDS011;63326;45.088;7.658;2023-02-19T16:15:33;16.58;;;11.30;;
74799;SDS011;63326;45.088;7.658;2023-02-19T16:18:01;14.60;;;9.98;;
74799;SDS011;63326;45.088;7.658;2023-02-19T16:20:28;14.75;;;10.65;;
74799;SDS011;63326;45.088;7.658;2023-02-19T16:23:01;16.15;;;10.13;;
74799;SDS011;63326;45.088;7.658;2023-02-19T16:25:38;16.35;;;10.20;;
74799;SDS011;63326;45.088;7.658;2023-02-19T16:28:24;14.30;;;9.63;;
74799;SDS011;63326;45.088;7.658;2023-02-19T16:31:26;18.40;;;9.57;;
74799;SDS011;63326;45.088;7.658;2023-02-19T16:33:47;16.73;;;11.18;;
74799;SDS011;63326;45.088;7.658;2023-02-19T16:46:51;16.50;;;10.30;;
74799;SDS011;63326;45.088;7.658;2023-02-19T16:49:20;17.20;;;10.00;;
74799;SDS011;63326;45.088;7.658;2023-02-19T16:51:48;20.38;;;11.25;;
74799;SDS011;63326;45.088;7.658;2023-02-19T16:54:16;19.98;;;10.07;;
74799;SDS011;63326;45.088;7.658;2023-02-19T16:56:42;17.30;;;12.00;;
74799;SDS011;63326;45.088;7.658;2023-02-19T16:59:09;16.92;;;9.13;;
74799;SDS011;63326;45.088;7.658;2023-02-19T17:01:36;19.15;;;10.07;;
74799;SDS011;63326;45.088;7.658;2023-02-19T17:06:33;26.35;;;12.52;;
74799;SDS011;63326;45.088;7.658;2023-02-19T17:09:03;24.38;;;11.85;;
74799;SDS011;63326;45.088;7.658;2023-02-19T17:11:31;23.27;;;11.75;;
74799;SDS011;63326;45.088;7.658;2023-02-19T17:13:58;22.33;;;11.45;;
74799;SDS011;63326;45.088;7.658;2023-02-19T17:16:26;29.40;;;12.48;;
74799;SDS011;63326;45.088;7.658;2023-02-19T17:18:54;22.33;;;13.05;;
74799;SDS011;63326;45.088;7.658;2023-02-19T17:21:27;22.45;;;10.13;;
74799;SDS011;63326;45.088;7.658;2023-02-19T17:23:57;19.52;;;10.70;;
74799;SDS011;63326;45.088;7.658;2023-02-19T17:26:24;17.13;;;8.82;;
74799;SDS011;63326;45.088;7.658;2023-02-19T17:28:56;16.35;;;9.05;;
74799;SDS011;63326;45.088;7.658;2023-02-19T17:31:24;21.58;;;9.80;;
74799;SDS011;63326;45.088;7.658;2023-02-19T17:33:51;19.95;;;8.93;;
74799;SDS011;63326;45.088;7.658;2023-02-19T17:36:19;16.20;;;10.45;;
74799;SDS011;63326;45.088;7.658;2023-02-19T17:41:20;12.02;;;8.48;;
74799;SDS011;63326;45.088;7.658;2023-02-19T17:43:46;14.90;;;7.90;;
74799;SDS011;63326;45.088;7.658;2023-02-19T17:46:20;20.27;;;9.57;;
74799;SDS011;63326;45.088;7.658;2023-02-19T17:48:49;19.10;;;9.40;;
74799;SDS011;63326;45.088;7.658;2023-02-19T17:51:16;17.67;;;9.18;;
74799;SDS011;63326;45.088;7.658;2023-02-19T17:53:43;16.23;;;10.43;;